Current Conditions
Partly Cloudy
Conditions



Pressure
30.04 (inHG) - 1017.32 (mb)
Visibility

10.0 (miles) - 16.1 (km)
Temperature
61  °F
Temperature
30  °F
Dewpoint
31  %
 Humidity
Wind Speed
24  mph
21  kts
39  km/h
10.7  m/s
Wind Direction
N
45°
E
90°
135°
S
180°
225°
W
270°
315°
 80°

Due East
Airport Data
KABQ
Albuquerque International Sunport
Metar :KABQ 211452Z 08021KT 10SM FEW050 16/M01 A3004 RMK AO2 PK WND 08027/1407 SLP100 FU FEW050 T01561011 51021
Sat 21st May 08:52 am
Raw Metar Info
Raw METAR is the most common format in the world for the transmission of observational weather data. It is highly standardized through the International Civil Aviation Organization (ICAO), which allows it to be understood throughout most of the world.
API Info
Data Provided by
https://www.checkwx.com/weather/KABQ

Aviation Weather providing METAR, TAF, AIRMET, SIGMET and OUTLOOK Weather Reports
© Info
CSS/SVG/PHP scripts were developed by weather34 for use in the weather34 template © 2015-2022

Guide Info provided by Metar-Wikipedia